Time;durP1;ratioP1;P1;durP2;ratioP2;P2;SDS_P1;SDS_P2;PMS_P1;PMS_P2;Temp;Humidity;BMP_temperature;BMP_pressure;BME280_temperature;BME280_humidity;BME280_pressure;Samples;Min_cycle;Max_cycle;Signal;HPM_P1;HPM_P2
2021/12/25 07:00:42;;;;;;;25.20;3.20;;;11.70;99.90;;;;;;5855089;23;20046;-77
2021/12/25 07:03:10;;;;;;;24.90;3.50;;;11.70;99.90;;;;;;4949238;28;20060;-78
2021/12/25 07:05:37;;;;;;;22.35;3.00;;;11.70;99.90;;;;;;4948044;28;20071;-77
2021/12/25 07:08:04;;;;;;;19.10;2.78;;;11.70;99.90;;;;;;4948446;28;20125;-77
2021/12/25 07:10:56;;;;;;;22.52;3.67;;;11.70;99.90;;;;;;4948104;28;20612;-78
2021/12/25 07:13:22;;;;;;;24.02;3.90;;;11.70;99.90;;;;;;4949270;28;20047;-78
2021/12/25 07:15:49;;;;;;;25.42;3.30;;;11.70;99.90;;;;;;4954093;28;20051;-78
2021/12/25 07:18:16;;;;;;;18.52;2.75;;;11.70;99.90;;;;;;4951927;28;20051;-78
2021/12/25 07:20:45;;;;;;;28.70;3.05;;;11.80;99.90;;;;;;4951516;28;20043;-78
2021/12/25 07:23:12;;;;;;;22.50;3.30;;;11.80;99.90;;;;;;4950948;28;20574;-78
2021/12/25 07:25:39;;;;;;;27.35;3.53;;;11.80;99.90;;;;;;4951521;28;20043;-78
2021/12/25 07:28:06;;;;;;;29.55;4.07;;;11.80;99.90;;;;;;4952108;28;20075;-78
2021/12/25 07:30:34;;;;;;;20.63;3.08;;;11.80;99.90;;;;;;4954187;28;20047;-78
2021/12/25 07:33:01;;;;;;;16.50;2.60;;;11.80;99.90;;;;;;4951063;28;20066;-78
2021/12/25 07:35:28;;;;;;;26.27;3.47;;;11.80;99.90;;;;;;4950400;28;20047;-79
2021/12/25 07:37:55;;;;;;;26.00;3.58;;;11.80;99.90;;;;;;4951103;28;20083;-77
2021/12/25 07:40:23;;;;;;;28.20;3.33;;;11.80;99.90;;;;;;4951092;28;20058;-78
2021/12/25 07:42:50;;;;;;;22.40;3.00;;;11.80;99.90;;;;;;4953109;28;20043;-78
2021/12/25 07:45:16;;;;;;;25.25;3.50;;;11.80;99.90;;;;;;4951414;28;20526;-79
2021/12/25 07:47:55;;;;;;;32.50;3.65;;;11.80;99.90;;;;;;4951227;28;20481;-78
2021/12/25 07:50:22;;;;;;;29.38;3.70;;;11.80;99.90;;;;;;4950354;28;20102;-78
2021/12/25 07:52:49;;;;;;;25.08;3.58;;;11.80;99.90;;;;;;4950640;28;20523;-78
2021/12/25 07:55:17;;;;;;;29.85;3.58;;;11.80;99.90;;;;;;4950581;28;20067;-78
2021/12/25 07:57:43;;;;;;;28.95;3.40;;;11.80;99.90;;;;;;4953142;28;20074;-79
2021/12/25 08:00:12;;;;;;;21.23;3.03;;;11.80;99.90;;;;;;4951059;28;20098;-76
2021/12/25 08:02:39;;;;;;;28.67;3.78;;;11.80;99.90;;;;;;4931584;29;20052;-77
2021/12/25 08:05:06;;;;;;;28.42;3.60;;;11.70;99.90;;;;;;4931204;29;20043;-76
2021/12/25 08:07:34;;;;;;;29.73;3.83;;;11.70;99.90;;;;;;4931408;29;20525;-77
2021/12/25 08:10:13;;;;;;;30.63;4.20;;;11.70;99.90;;;;;;4927223;29;20528;-77
2021/12/25 08:12:43;;;;;;;31.15;4.05;;;11.70;99.90;;;;;;4928372;29;20063;-76
2021/12/25 08:15:11;;;;;;;25.13;3.25;;;11.70;99.90;;;;;;4929734;29;20063;-78
2021/12/25 08:17:39;;;;;;;23.35;3.00;;;11.70;99.90;;;;;;4929288;29;20422;-77
2021/12/25 08:20:07;;;;;;;31.48;3.80;;;11.70;99.90;;;;;;4928649;29;20168;-77
2021/12/25 08:22:35;;;;;;;31.95;3.92;;;11.70;99.90;;;;;;4928861;29;20111;-77
2021/12/25 08:25:03;;;;;;;35.30;3.95;;;11.70;99.90;;;;;;4929144;29;20122;-76
2021/12/25 08:27:30;;;;;;;21.23;3.40;;;11.70;99.90;;;;;;4929075;29;20067;-77
2021/12/25 08:29:57;;;;;;;30.17;3.28;;;11.70;99.90;;;;;;4928997;29;20532;-77
2021/12/25 08:32:27;;;;;;;26.08;2.92;;;11.70;99.90;;;;;;4928983;29;20408;-77
2021/12/25 08:34:56;;;;;;;19.45;2.83;;;11.70;99.90;;;;;;4929046;29;20083;-77
2021/12/25 08:37:24;;;;;;;28.35;4.40;;;11.70;99.90;;;;;;4928567;29;20575;-77
2021/12/25 08:39:52;;;;;;;28.67;3.53;;;11.70;99.90;;;;;;4928861;29;20055;-77
2021/12/25 08:42:20;;;;;;;23.77;2.88;;;11.70;99.90;;;;;;4928647;29;20284;-77
2021/12/25 08:47:22;;;;;;;35.00;3.30;;;11.70;99.90;;;;;;4928553;29;20143;-76
2021/12/25 08:49:49;;;;;;;25.15;3.67;;;11.70;99.90;;;;;;4928664;29;20084;-77
2021/12/25 08:52:17;;;;;;;22.27;3.20;;;11.70;99.90;;;;;;4928081;29;20055;-77
2021/12/25 08:54:45;;;;;;;;;;;11.70;99.90;;;;;;4929064;29;20085;-77
2021/12/25 08:57:12;;;;;;;27.55;3.22;;;11.70;99.90;;;;;;4928868;29;19927;-76
2021/12/25 08:59:40;;;;;;;22.13;3.55;;;11.70;99.90;;;;;;4910486;29;20086;-77
2021/12/25 09:02:12;;;;;;;23.17;3.75;;;11.70;99.90;;;;;;4933049;28;20070;-76
2021/12/25 09:04:41;;;;;;;29.10;3.78;;;11.70;99.90;;;;;;4947511;28;20504;-77
2021/12/25 09:07:08;;;;;;;23.15;2.75;;;11.70;99.90;;;;;;4946763;28;20558;-77
2021/12/25 09:09:36;;;;;;;18.55;2.85;;;11.80;99.90;;;;;;4948890;28;20464;-77
2021/12/25 09:12:05;;;;;;;28.98;3.50;;;11.80;99.90;;;;;;4946813;28;20131;-77
2021/12/25 09:14:32;;;;;;;22.98;3.40;;;11.80;99.90;;;;;;4947003;28;20043;-76
2021/12/25 09:16:58;;;;;;;23.75;3.50;;;11.80;99.90;;;;;;4947371;28;20078;-76
2021/12/25 09:19:25;;;;;;;28.45;4.47;;;11.80;99.90;;;;;;4947237;28;20106;-76
2021/12/25 09:21:52;;;;;;;29.67;3.55;;;11.80;99.90;;;;;;4947718;28;20105;-77
2021/12/25 09:24:20;;;;;;;25.02;3.10;;;11.80;99.90;;;;;;4946827;28;20075;-77
2021/12/25 09:26:50;;;;;;;22.83;3.80;;;11.80;99.90;;;;;;4941048;28;20051;-79
2021/12/25 09:29:17;;;;;;;23.00;3.17;;;11.80;99.90;;;;;;4946822;28;20086;-77
2021/12/25 09:31:44;;;;;;;22.45;3.63;;;11.90;99.90;;;;;;4946966;28;20130;-78
2021/12/25 09:34:12;;;;;;;33.83;4.47;;;11.90;99.90;;;;;;4946716;28;20047;-77
2021/12/25 09:36:39;;;;;;;22.23;4.10;;;11.90;99.90;;;;;;4947972;28;20491;-78
2021/12/25 09:39:07;;;;;;;35.80;4.50;;;11.90;99.90;;;;;;4946070;28;20145;-77
2021/12/25 09:41:35;;;;;;;28.70;4.13;;;11.90;99.90;;;;;;4945784;28;20078;-78
2021/12/25 09:44:03;;;;;;;29.67;4.38;;;11.90;99.90;;;;;;4947724;28;20047;-77
2021/12/25 09:46:31;;;;;;;17.73;3.72;;;11.90;99.90;;;;;;4947735;28;20044;-78
2021/12/25 09:48:58;;;;;;;32.45;3.35;;;11.90;99.90;;;;;;4934577;28;20507;-77
2021/12/25 09:51:26;;;;;;;24.17;3.00;;;11.90;99.90;;;;;;4950535;28;20105;-77
2021/12/25 09:54:09;;;;;;;20.98;3.60;;;11.90;99.90;;;;;;4933739;29;20081;-79
2021/12/25 09:56:39;;;;;;;22.45;3.17;;;12.00;99.90;;;;;;4934174;29;20039;-79
2021/12/25 09:59:07;;;;;;;22.02;3.30;;;11.90;99.90;;;;;;4948042;28;20047;-78
2021/12/25 10:01:36;;;;;;;14.68;3.00;;;12.00;99.90;;;;;;4938850;28;20044;-79
2021/12/25 10:04:04;;;;;;;20.10;3.95;;;11.90;99.90;;;;;;4931536;29;20496;-80
2021/12/25 10:06:36;;;;;;;13.77;2.35;;;12.00;99.90;;;;;;4932410;29;20067;-78
2021/12/25 10:09:26;;;;;;;18.88;5.25;;;12.00;99.90;;;;;;4893791;29;20381;-79
2021/12/25 10:12:09;;;;;;;15.63;4.50;;;12.00;99.90;;;;;;4930366;29;20043;-80
2021/12/25 10:14:38;;;;;;;35.35;11.93;;;12.00;99.90;;;;;;4928953;29;20505;-77
2021/12/25 10:17:21;;;;;;;31.75;11.32;;;12.00;99.90;;;;;;4929594;29;20075;-79
2021/12/25 10:20:13;;;;;;;22.60;9.77;;;12.00;99.90;;;;;;4928539;29;20124;-78
2021/12/25 10:23:02;;;;;;;35.63;15.00;;;12.00;99.90;;;;;;4929157;29;20074;-77
2021/12/25 10:25:35;;;;;;;;;;;11.90;99.90;;;;;;4929707;29;20652;-78
2021/12/25 10:28:08;;;;;;;25.73;7.07;;;11.90;99.90;;;;;;4914108;29;19927;-78
2021/12/25 10:30:59;;;;;;;51.60;19.73;;;11.90;99.90;;;;;;4931768;29;20095;-78
2021/12/25 10:33:28;;;;;;;21.15;8.60;;;11.90;99.90;;;;;;4923737;29;20112;-78
2021/12/25 10:35:58;;;;;;;;;;;11.90;99.90;;;;;;4925209;29;20063;-78
2021/12/25 10:38:24;;;;;;;36.80;14.10;;;11.80;99.90;;;;;;4923607;29;20435;-76
2021/12/25 10:41:13;;;;;;;33.45;14.18;;;11.90;99.90;;;;;;4923750;29;20607;-77
2021/12/25 10:43:42;;;;;;;30.17;13.65;;;11.90;99.90;;;;;;4922301;29;20052;-77
2021/12/25 10:46:10;;;;;;;34.65;11.05;;;11.90;99.90;;;;;;4921980;29;20048;-77
2021/12/25 10:48:37;;;;;;;29.00;7.50;;;11.90;99.90;;;;;;4929143;29;20055;-77
2021/12/25 10:51:05;;;;;;;25.45;12.05;;;12.00;99.90;;;;;;4928192;29;20039;-79
2021/12/25 10:53:42;;;;;;;24.85;12.27;;;11.90;99.90;;;;;;4929419;29;20130;-78
2021/12/25 10:56:10;;;;;;;27.77;7.88;;;11.90;99.90;;;;;;4929261;29;20081;-79
2021/12/25 10:58:38;;;;;;;21.15;8.88;;;11.90;99.90;;;;;;4926266;29;20082;-79
2021/12/25 11:01:09;;;;;;;16.83;7.30;;;11.90;99.90;;;;;;4933765;28;20059;-78
2021/12/25 11:03:39;;;;;;;29.23;13.07;;;11.90;99.90;;;;;;4946267;28;20559;-79
2021/12/25 11:06:10;;;;;;;16.52;4.95;;;11.90;99.90;;;;;;4944984;28;20453;-78
2021/12/25 11:09:01;;;;;;;21.98;6.70;;;11.90;99.90;;;;;;4949045;28;20119;-79
2021/12/25 11:11:27;;;;;;;22.17;9.45;;;11.80;99.90;;;;;;4944000;28;20058;-79
2021/12/25 11:14:00;;;;;;;29.83;11.98;;;11.80;99.90;;;;;;4947029;28;20064;-80
2021/12/25 11:16:34;;;;;;;24.75;12.27;;;11.80;99.90;;;;;;4944875;28;20075;-79
2021/12/25 11:19:12;;;;;;;26.95;9.85;;;11.80;99.90;;;;;;4945682;28;20086;-78
2021/12/25 11:21:46;;;;;;;17.73;5.47;;;11.90;99.90;;;;;;4947419;28;20051;-78
2021/12/25 11:24:18;;;;;;;17.13;7.22;;;11.90;99.90;;;;;;4949467;28;20043;-79
2021/12/25 11:26:49;;;;;;;26.05;12.00;;;11.90;99.90;;;;;;4949068;28;20074;-78
2021/12/25 11:29:19;;;;;;;28.52;8.85;;;12.00;99.90;;;;;;4946351;28;20117;-79
2021/12/25 11:31:48;;;;;;;19.58;5.63;;;12.10;99.90;;;;;;4944753;28;20067;-78
2021/12/25 11:34:16;;;;;;;23.40;6.50;;;12.20;99.90;;;;;;4941950;28;20051;-78
2021/12/25 11:37:06;;;;;;;25.63;6.50;;;12.20;99.90;;;;;;4949557;28;20050;-79
2021/12/25 11:39:34;;;;;;;25.27;7.40;;;12.30;99.90;;;;;;4946342;28;20448;-81
2021/12/25 11:42:08;;;;;;;23.40;4.22;;;12.30;99.90;;;;;;4946294;28;20043;-79
2021/12/25 11:44:45;;;;;;;29.17;8.98;;;12.30;99.90;;;;;;4946363;28;20556;-80
2021/12/25 11:47:37;;;;;;;21.70;7.72;;;12.30;99.90;;;;;;4946279;28;20047;-76
2021/12/25 11:50:34;;;;;;;30.20;7.38;;;12.30;99.90;;;;;;4940858;28;20059;-79
2021/12/25 11:53:07;;;;;;;25.00;6.35;;;12.30;99.90;;;;;;4944503;28;20067;-80
2021/12/25 11:58:40;;;;;;;28.65;5.78;;;12.30;99.90;;;;;;4947522;28;20457;-79
2021/12/25 12:01:29;;;;;;;39.75;8.82;;;12.30;99.90;;;;;;4950005;28;20086;-79
2021/12/25 12:04:17;;;;;;;30.45;7.40;;;12.30;99.90;;;;;;4950846;28;20046;-78
2021/12/25 12:06:47;;;;;;;20.63;7.00;;;12.30;99.90;;;;;;4950133;28;20127;-77
2021/12/25 12:09:15;;;;;;;24.23;4.78;;;12.40;99.90;;;;;;4947554;28;20074;-77
2021/12/25 12:11:45;;;;;;;36.20;6.15;;;12.40;99.90;;;;;;4943320;28;20047;-78
2021/12/25 12:14:12;;;;;;;28.92;7.97;;;12.40;99.90;;;;;;4947398;28;20055;-77
2021/12/25 12:16:48;;;;;;;27.67;5.03;;;12.40;99.90;;;;;;4948323;28;20106;-80
2021/12/25 12:19:35;;;;;;;26.83;4.78;;;12.50;99.90;;;;;;4946373;28;20098;-77
2021/12/25 12:22:18;;;;;;;25.70;4.00;;;12.50;99.90;;;;;;4940574;28;20058;-80
2021/12/25 12:27:31;;;;;;;28.10;5.85;;;12.50;99.90;;;;;;4946218;28;20508;-78
2021/12/25 12:29:59;;;;;;;27.95;4.90;;;12.50;99.90;;;;;;4938540;28;20051;-77
2021/12/25 12:32:43;;;;;;;31.20;6.47;;;12.50;99.90;;;;;;4941005;28;20055;-78
2021/12/25 12:35:32;;;;;;;30.98;4.38;;;12.50;99.90;;;;;;4943528;28;20104;-78
2021/12/25 12:41:25;;;;;;;23.67;3.92;;;12.50;99.90;;;;;;4944984;28;20050;-78
2021/12/25 12:44:30;;;;;;;26.23;5.80;;;12.50;99.90;;;;;;4947758;28;20109;-78
2021/12/25 12:47:01;;;;;;;28.67;6.80;;;12.50;99.90;;;;;;4944474;28;20039;-80
2021/12/25 12:49:39;;;;;;;38.85;5.32;;;12.60;99.90;;;;;;4953424;28;20043;-79
2021/12/25 12:52:28;;;;;;;21.92;3.40;;;12.70;99.90;;;;;;4949737;28;20055;-79
2021/12/25 12:55:16;;;;;;;26.65;4.63;;;12.70;99.90;;;;;;4950050;28;20058;-78
2021/12/25 12:57:45;;;;;;;30.88;3.92;;;12.70;99.90;;;;;;4947298;28;20055;-80
2021/12/25 13:00:14;;;;;;;;;;;12.70;99.90;;;;;;4948919;28;20582;-80
2021/12/25 13:02:50;;;;;;;27.42;3.88;;;12.80;99.90;;;;;;4930616;29;20357;-80
2021/12/25 13:05:24;;;;;;;34.00;6.00;;;12.80;99.90;;;;;;4929192;29;20052;-78
2021/12/25 13:07:55;;;;;;;35.67;4.60;;;12.90;99.90;;;;;;4930065;29;20052;-79
2021/12/25 13:10:31;;;;;;;29.00;5.22;;;13.00;99.90;;;;;;4929830;29;20047;-77
2021/12/25 13:13:09;;;;;;;36.70;5.13;;;13.00;99.90;;;;;;4931850;29;20066;-78
2021/12/25 13:15:36;;;;;;;29.90;4.22;;;13.00;99.90;;;;;;4932366;29;20039;-77
2021/12/25 13:18:05;;;;;;;27.55;3.80;;;13.00;99.90;;;;;;4931546;29;20071;-77
2021/12/25 13:20:45;;;;;;;39.22;4.78;;;13.00;99.90;;;;;;4931440;29;20047;-77
2021/12/25 13:23:22;;;;;;;36.88;4.30;;;13.00;99.90;;;;;;4930332;29;20095;-78
2021/12/25 13:25:51;;;;;;;30.65;5.00;;;12.90;99.90;;;;;;4929908;29;20083;-77
2021/12/25 13:28:19;;;;;;;37.97;4.55;;;13.00;99.90;;;;;;4929033;29;20048;-78
2021/12/25 13:30:49;;;;;;;31.50;3.88;;;13.00;99.90;;;;;;4932118;29;20095;-77
2021/12/25 13:33:20;;;;;;;24.05;3.83;;;13.00;99.90;;;;;;4931172;29;20064;-79
2021/12/25 13:35:57;;;;;;;30.65;4.70;;;12.90;99.90;;;;;;4930248;29;20051;-78
2021/12/25 13:38:25;;;;;;;25.42;4.50;;;13.00;99.90;;;;;;4929543;29;20078;-79
2021/12/25 13:40:54;;;;;;;31.03;4.27;;;12.90;99.90;;;;;;4929728;29;20106;-79
2021/12/25 13:43:22;;;;;;;32.42;3.63;;;12.90;99.90;;;;;;4930395;29;20099;-77
2021/12/25 13:45:55;;;;;;;37.83;5.10;;;12.90;99.90;;;;;;4931528;29;20085;-79
2021/12/25 13:48:22;;;;;;;32.28;4.55;;;12.90;99.90;;;;;;4931476;29;20051;-78
2021/12/25 13:50:50;;;;;;;27.63;3.92;;;12.90;99.90;;;;;;4930735;29;20047;-77
2021/12/25 13:53:20;;;;;;;29.77;4.77;;;12.90;99.90;;;;;;4929373;29;20052;-78
2021/12/25 13:55:47;;;;;;;35.72;4.00;;;12.90;99.90;;;;;;4931115;29;20071;-77
2021/12/25 13:58:17;;;;;;;35.25;4.53;;;12.90;99.90;;;;;;4930800;29;20103;-78
2021/12/25 14:00:49;;;;;;;45.83;5.07;;;13.00;99.90;;;;;;4931520;28;20107;-77
2021/12/25 14:03:20;;;;;;;38.67;5.40;;;13.00;99.90;;;;;;4929678;29;20056;-78
2021/12/25 14:05:51;;;;;;;37.75;7.28;;;13.00;99.90;;;;;;4913913;29;20482;-78
2021/12/25 14:08:20;;;;;;;34.70;5.45;;;13.00;99.90;;;;;;4929914;29;20124;-78
2021/12/25 14:10:47;;;;;;;40.10;6.18;;;13.00;99.90;;;;;;4930251;29;20040;-78
2021/12/25 14:13:17;;;;;;;37.20;5.80;;;13.00;99.90;;;;;;4930582;29;20107;-78
2021/12/25 14:15:49;;;;;;;44.45;5.53;;;13.10;99.90;;;;;;4931650;29;20051;-80
2021/12/25 14:18:17;;;;;;;37.97;7.10;;;13.10;99.90;;;;;;4929049;29;20623;-78
2021/12/25 14:20:44;;;;;;;34.95;4.72;;;13.10;99.90;;;;;;4930698;29;20052;-78
2021/12/25 14:23:13;;;;;;;45.65;6.57;;;13.10;99.90;;;;;;4917613;29;20051;-79
2021/12/25 14:25:53;;;;;;;37.38;4.63;;;13.10;99.90;;;;;;4934998;29;20087;-77
2021/12/25 14:28:28;;;;;;;40.25;6.90;;;13.20;99.90;;;;;;4933926;29;20060;-78
2021/12/25 14:31:00;;;;;;;41.63;5.65;;;13.20;99.90;;;;;;4933179;28;20052;-79
2021/12/25 14:33:30;;;;;;;44.40;6.68;;;13.20;99.90;;;;;;4927077;29;20126;-79
2021/12/25 14:35:57;;;;;;;35.63;4.88;;;13.20;99.90;;;;;;4931273;29;20524;-80
2021/12/25 14:38:24;;;;;;;42.20;6.43;;;13.20;99.90;;;;;;4929661;29;20103;-79
2021/12/25 14:40:52;;;;;;;47.97;6.15;;;13.20;99.90;;;;;;4931176;29;20110;-78
2021/12/25 14:43:28;;;;;;;44.92;5.90;;;13.20;99.90;;;;;;4930904;29;20095;-80
2021/12/25 14:45:56;;;;;;;64.15;14.48;;;13.10;99.90;;;;;;4931480;29;20052;-80
2021/12/25 14:48:33;;;;;;;50.97;6.80;;;13.20;99.90;;;;;;4927581;29;20055;-80
2021/12/25 14:51:23;;;;;;;43.30;5.72;;;13.10;99.90;;;;;;4930765;29;20059;-79
2021/12/25 14:53:58;;;;;;;45.58;8.00;;;13.10;99.90;;;;;;4930045;29;20740;-81
2021/12/25 14:56:37;;;;;;;50.72;5.55;;;13.20;99.90;;;;;;4929559;29;20059;-79
2021/12/25 14:59:19;;;;;;;44.17;6.55;;;13.10;99.90;;;;;;4909845;29;20048;-80
2021/12/25 15:01:49;;;;;;;35.97;5.20;;;13.10;99.90;;;;;;4930965;29;20111;-81
2021/12/25 15:04:27;;;;;;;43.40;6.97;;;13.10;99.90;;;;;;4930226;29;20063;-81
2021/12/25 15:07:07;;;;;;;55.13;5.53;;;13.10;99.90;;;;;;4931185;29;20101;-80
2021/12/25 15:09:48;;;;;;;38.00;6.28;;;13.10;99.90;;;;;;4912288;29;20051;-80
2021/12/25 15:12:20;;;;;;;54.10;6.88;;;13.10;99.90;;;;;;4930272;29;20055;-81
2021/12/25 15:15:14;;;;;;;43.65;6.20;;;13.00;99.90;;;;;;4930352;29;20329;-76
2021/12/25 15:17:49;;;;;;;41.40;5.82;;;13.00;99.90;;;;;;4930013;29;20067;-82
2021/12/25 15:20:25;;;;;;;42.10;5.30;;;13.10;99.90;;;;;;4924763;29;20138;-83
2021/12/25 15:22:53;;;;;;;48.85;8.35;;;13.10;99.90;;;;;;4919978;29;20052;-78
2021/12/25 15:25:25;;;;;;;36.85;6.10;;;13.10;99.90;;;;;;4912807;29;20059;-79
2021/12/25 15:27:54;;;;;;;59.67;7.47;;;13.00;99.90;;;;;;4928977;29;20047;-79
2021/12/25 15:30:25;;;;;;;43.92;6.05;;;13.10;99.90;;;;;;4929741;29;20055;-79
2021/12/25 15:33:00;;;;;;;45.95;5.57;;;13.10;99.90;;;;;;4929960;29;20114;-79
2021/12/25 15:35:37;;;;;;;47.13;6.53;;;13.10;99.90;;;;;;4929997;29;20048;-79
2021/12/25 15:38:05;;;;;;;45.88;6.50;;;13.10;99.90;;;;;;4930074;29;20055;-79
2021/12/25 15:40:42;;;;;;;53.92;7.00;;;13.00;99.90;;;;;;4920749;29;20579;-78
2021/12/25 15:43:09;;;;;;;43.60;5.82;;;13.10;99.90;;;;;;4929514;29;20146;-79
2021/12/25 15:45:36;;;;;;;51.20;5.30;;;13.00;99.90;;;;;;4931129;29;20047;-79
2021/12/25 15:48:07;;;;;;;46.13;6.22;;;13.00;99.90;;;;;;4930155;29;20520;-79
2021/12/25 15:50:36;;;;;;;38.75;5.93;;;12.90;99.90;;;;;;4912528;29;20126;-79
2021/12/25 15:53:04;;;;;;;;;;;12.90;99.90;;;;;;4930752;29;20051;-79
2021/12/25 15:55:33;;;;;;;62.13;7.90;;;12.90;99.90;;;;;;4912426;29;19990;-79
2021/12/25 15:58:09;;;;;;;54.50;7.60;;;12.90;99.90;;;;;;4928987;29;20079;-79
2021/12/25 16:00:39;;;;;;;40.88;5.40;;;12.80;99.90;;;;;;4929824;29;20048;-79
2021/12/25 16:03:06;;;;;;;47.35;6.00;;;12.80;99.90;;;;;;4928812;29;20047;-79
2021/12/25 16:05:33;;;;;;;49.25;6.30;;;12.80;99.90;;;;;;4930051;29;20044;-79
2021/12/25 16:08:01;;;;;;;49.58;5.25;;;12.70;99.90;;;;;;4931682;29;20040;-79
2021/12/25 16:10:28;;;;;;;44.65;6.85;;;12.80;99.90;;;;;;4929402;29;20509;-79
2021/12/25 16:12:55;;;;;;;55.05;6.35;;;12.70;99.90;;;;;;4933519;29;20512;-79
2021/12/25 16:15:24;;;;;;;46.13;7.25;;;12.70;99.90;;;;;;4932072;29;20066;-78
2021/12/25 16:17:53;;;;;;;45.95;6.88;;;12.70;99.90;;;;;;4931232;29;20661;-79
2021/12/25 16:20:21;;;;;;;39.90;5.55;;;12.70;99.90;;;;;;4930584;29;20047;-79
2021/12/25 16:22:49;;;;;;;47.97;6.55;;;12.70;99.90;;;;;;4930227;29;20056;-79
2021/12/25 16:25:16;;;;;;;50.30;6.32;;;12.70;99.90;;;;;;4930030;29;20448;-79
2021/12/25 16:27:44;;;;;;;54.42;5.97;;;12.60;99.90;;;;;;4933269;29;20079;-79
2021/12/25 16:30:24;;;;;;;54.55;6.50;;;12.60;99.90;;;;;;4931988;29;20056;-78
2021/12/25 16:32:50;;;;;;;60.20;5.60;;;12.60;99.90;;;;;;4930945;29;20557;-79
2021/12/25 16:35:18;;;;;;;47.50;6.10;;;12.60;99.90;;;;;;4928486;29;20067;-78
2021/12/25 16:37:45;;;;;;;51.88;5.80;;;12.60;99.90;;;;;;4927751;29;20047;-78
2021/12/25 16:40:12;;;;;;;45.72;5.82;;;12.60;99.90;;;;;;4928482;29;20043;-78
2021/12/25 16:42:42;;;;;;;54.67;6.07;;;12.60;99.90;;;;;;4929908;29;20111;-76
2021/12/25 16:45:09;;;;;;;51.95;5.18;;;12.60;99.90;;;;;;4927939;29;20051;-79
2021/12/25 16:47:36;;;;;;;55.72;6.28;;;12.60;99.90;;;;;;4929591;29;20063;-78
2021/12/25 16:50:05;;;;;;;41.58;4.90;;;12.60;99.90;;;;;;4929004;29;20524;-78
2021/12/25 16:52:32;;;;;;;43.78;6.50;;;12.50;99.90;;;;;;4928859;29;20071;-78
2021/12/25 16:54:59;;;;;;;54.75;5.53;;;12.50;99.90;;;;;;4929433;29;20494;-78
2021/12/25 16:57:26;;;;;;;46.70;6.07;;;12.50;99.90;;;;;;4927940;29;20476;-78
2021/12/25 16:59:53;;;;;;;56.17;6.20;;;12.50;99.90;;;;;;4929283;29;20122;-79
2021/12/25 17:02:25;;;;;;;53.95;6.82;;;12.50;99.90;;;;;;4931847;28;20044;-78
2021/12/25 17:04:53;;;;;;;55.03;7.45;;;12.50;99.90;;;;;;4930832;28;20591;-76
2021/12/25 17:07:21;;;;;;;58.08;11.35;;;12.50;99.90;;;;;;4939803;28;20076;-79
2021/12/25 17:09:48;;;;;;;59.05;9.70;;;12.50;99.90;;;;;;4944113;28;20154;-76
2021/12/25 17:12:15;;;;;;;63.28;10.45;;;12.50;99.90;;;;;;4932840;28;20082;-78
2021/12/25 17:14:45;;;;;;;49.67;6.80;;;12.40;99.90;;;;;;4937492;28;20530;-78
2021/12/25 17:17:12;;;;;;;52.00;8.77;;;12.40;99.90;;;;;;4939115;28;20066;-78
2021/12/25 17:19:42;;;;;;;66.47;9.88;;;12.40;99.90;;;;;;4940555;28;20113;-78
2021/12/25 17:22:11;;;;;;;76.93;11.18;;;12.40;99.90;;;;;;4935982;28;20083;-77
2021/12/25 17:24:39;;;;;;;102.32;15.70;;;12.40;99.90;;;;;;4948568;28;20110;-78
2021/12/25 17:27:06;;;;;;;81.73;15.23;;;12.40;99.90;;;;;;4938948;28;20055;-77
2021/12/25 17:29:33;;;;;;;83.43;16.35;;;12.40;99.90;;;;;;4933431;28;20331;-78
2021/12/25 17:32:01;;;;;;;70.28;10.13;;;12.40;99.90;;;;;;4926935;28;20044;-77
2021/12/25 17:34:28;;;;;;;74.10;11.00;;;12.40;99.90;;;;;;4926104;28;20103;-77
2021/12/25 17:36:57;;;;;;;67.28;8.82;;;12.40;99.90;;;;;;4926491;29;20086;-77
2021/12/25 17:39:24;;;;;;;65.32;9.68;;;12.40;99.90;;;;;;4941014;28;20059;-78
2021/12/25 17:41:53;;;;;;;79.20;9.60;;;12.40;99.90;;;;;;4935807;28;20075;-78
2021/12/25 17:44:22;;;;;;;75.03;12.80;;;12.40;99.90;;;;;;4926300;28;20039;-78
2021/12/25 17:46:51;;;;;;;72.65;11.00;;;12.30;99.90;;;;;;4939867;28;20078;-77
2021/12/25 17:49:22;;;;;;;74.57;11.55;;;12.40;99.90;;;;;;4934759;28;20166;-77
2021/12/25 17:52:10;;;;;;;94.45;11.65;;;12.30;99.90;;;;;;4939451;28;20048;-77
2021/12/25 17:54:37;;;;;;;108.13;25.40;;;12.40;99.90;;;;;;4946270;28;20099;-77
2021/12/25 17:57:06;;;;;;;94.53;15.80;;;12.30;99.90;;;;;;4941928;28;20074;-77
2021/12/25 17:59:33;;;;;;;70.78;14.07;;;12.40;99.90;;;;;;4928293;29;20047;-77
2021/12/25 18:02:00;;;;;;;61.92;9.43;;;12.30;99.90;;;;;;4926692;28;20134;-76
2021/12/25 18:04:27;;;;;;;75.95;10.25;;;12.40;99.90;;;;;;4931011;28;20095;-76
2021/12/25 18:06:54;;;;;;;71.75;9.63;;;12.30;99.90;;;;;;4930046;29;20332;-78
2021/12/25 18:09:30;;;;;;;87.60;12.82;;;12.30;99.90;;;;;;4927385;29;20044;-79
2021/12/25 18:11:57;;;;;;;85.32;14.13;;;12.30;99.90;;;;;;4928191;29;20126;-76
2021/12/25 18:14:24;;;;;;;82.90;12.55;;;12.30;99.90;;;;;;4927631;29;20107;-76
2021/12/25 18:16:51;;;;;;;75.60;11.68;;;12.30;99.90;;;;;;4927994;29;20508;-77
2021/12/25 18:19:18;;;;;;;113.63;25.92;;;12.30;99.90;;;;;;4927315;29;20051;-76
2021/12/25 18:21:46;;;;;;;155.48;33.35;;;12.30;99.90;;;;;;4927823;29;20075;-79
2021/12/25 18:24:12;;;;;;;104.20;23.95;;;12.30;99.90;;;;;;4927537;29;20464;-79
2021/12/25 18:26:39;;;;;;;97.18;24.17;;;12.30;99.90;;;;;;4927866;29;20499;-79
2021/12/25 18:29:06;;;;;;;99.93;20.13;;;12.30;99.90;;;;;;4907266;29;20075;-78
2021/12/25 18:31:33;;;;;;;83.05;22.23;;;12.30;99.90;;;;;;4927782;29;20044;-76
2021/12/25 18:34:00;;;;;;;106.35;34.17;;;12.30;99.90;;;;;;4928298;29;20135;-78
2021/12/25 18:36:27;;;;;;;87.22;15.43;;;12.30;99.90;;;;;;4927687;29;20062;-76
2021/12/25 18:38:54;;;;;;;74.88;14.10;;;12.30;99.90;;;;;;4928223;29;20130;-76
2021/12/25 18:41:26;;;;;;;91.32;29.65;;;12.30;99.90;;;;;;4927463;29;20048;-77
2021/12/25 18:43:53;;;;;;;74.15;13.75;;;12.30;99.90;;;;;;4928375;29;20359;-77
2021/12/25 18:46:20;;;;;;;80.57;12.13;;;12.30;99.90;;;;;;4927477;29;20468;-76
2021/12/25 18:48:53;;;;;;;77.93;14.70;;;12.30;99.90;;;;;;4927252;29;20052;-76
2021/12/25 18:51:20;;;;;;;64.93;16.80;;;12.30;99.90;;;;;;4927688;29;20048;-78
2021/12/25 18:53:47;;;;;;;69.55;11.60;;;12.30;99.90;;;;;;4928006;29;20086;-75
2021/12/25 18:56:14;;;;;;;75.38;16.20;;;12.30;99.90;;;;;;4926543;29;20079;-77
2021/12/25 18:58:41;;;;;;;74.53;12.48;;;12.30;99.90;;;;;;4928003;29;20056;-75
2021/12/25 19:01:08;;;;;;;79.35;10.55;;;12.30;99.90;;;;;;4926459;29;20052;-76
2021/12/25 19:03:35;;;;;;;75.90;9.30;;;12.30;99.90;;;;;;4927835;29;20056;-77
2021/12/25 19:06:02;;;;;;;76.15;11.75;;;12.30;99.90;;;;;;4927770;29;20047;-76
2021/12/25 19:08:31;;;;;;;63.70;13.75;;;12.30;99.90;;;;;;4929055;29;20055;-77
2021/12/25 19:10:58;;;;;;;;;;;12.30;99.90;;;;;;4931409;29;20043;-76
2021/12/25 19:13:26;;;;;;;60.88;10.80;;;12.20;99.90;;;;;;4930497;29;19962;-77
2021/12/25 19:15:56;;;;;;;63.17;9.88;;;12.20;99.90;;;;;;4930660;29;20043;-76
2021/12/25 19:18:23;;;;;;;69.70;9.63;;;12.20;99.90;;;;;;4930968;29;20583;-77
2021/12/25 19:20:50;;;;;;;65.15;11.43;;;12.20;99.90;;;;;;4930447;29;20051;-77
2021/12/25 19:23:18;;;;;;;91.70;21.65;;;12.20;99.90;;;;;;4930335;29;20126;-77
2021/12/25 19:25:45;;;;;;;88.70;10.68;;;12.20;99.90;;;;;;4930724;29;20083;-77
2021/12/25 19:28:12;;;;;;;78.85;18.23;;;12.10;99.90;;;;;;4930306;29;20134;-76
2021/12/25 19:30:44;;;;;;;91.53;12.38;;;12.20;99.90;;;;;;4931293;29;20051;-77
2021/12/25 19:33:12;;;;;;;79.70;8.65;;;12.20;99.90;;;;;;4929797;29;20056;-76
2021/12/25 19:35:40;;;;;;;60.30;7.90;;;12.10;99.90;;;;;;4930726;29;20527;-78
2021/12/25 19:38:11;;;;;;;83.22;9.43;;;12.20;99.90;;;;;;4929815;29;20044;-78
2021/12/25 19:40:39;;;;;;;72.97;8.57;;;12.10;99.90;;;;;;4931162;29;20083;-75
2021/12/25 19:43:07;;;;;;;84.65;9.20;;;12.10;99.90;;;;;;4930460;29;20055;-76
2021/12/25 19:45:36;;;;;;;75.22;9.13;;;12.20;99.90;;;;;;4932123;29;20115;-78
2021/12/25 19:48:06;;;;;;;75.03;9.25;;;12.20;99.90;;;;;;4930436;29;20047;-78
2021/12/25 19:50:44;;;;;;;81.85;9.77;;;12.20;99.90;;;;;;4930395;29;20043;-79
2021/12/25 19:53:15;;;;;;;84.22;11.73;;;12.10;99.90;;;;;;4929890;29;20055;-76
2021/12/25 19:55:44;;;;;;;72.28;10.02;;;12.10;99.90;;;;;;4913637;29;20157;-77
2021/12/25 19:58:11;;;;;;;;;;;12.10;99.90;;;;;;4930344;29;20050;-77
2021/12/25 20:00:45;;;;;;;79.28;13.45;;;12.10;99.90;;;;;;4932430;29;19958;-77
2021/12/25 20:03:15;;;;;;;81.97;14.27;;;12.10;99.90;;;;;;4937677;28;20058;-78
2021/12/25 20:05:44;;;;;;;96.93;15.55;;;12.10;99.90;;;;;;4934684;28;20099;-77